Ladd Junction, Illinois
Current Conditions -  °F | °C
As of 10:15 AM on Wednesday 28 Jan 2015 (Local Time) from KVYS Reporting Station
Clear Clear  
Wind Chill: 17°   Ceiling: Unl
Heat Index: 29°   Visibility: 10mi
Dew Point: 21°   Wind: 18mph
Humidity: 72%   Direction: 170°S
Pressure: 30.23"   Gusts: 24mph
Location:  41.3817°N, 89.2146°W
Report Text: KVYS 281615Z AUTO 17016G21KT 10SM CLR M02/M06 A3023 RMK AO2 T10161061
Loading
Personal Weather Stations






























Interactive Weather Map New forecast layout! Learn more

10-Day Weather Forecast

Advertisements
Track Severe Weather on mobile